Abbott, New Mexico
Current Conditions -  °F | °C
As of 5:53 PM on Tuesday 27 Jan 2015 (Local Time) from KRTN Reporting Station
Clear Clear  
Wind Chill: 41°   Ceiling: Unl
Heat Index: 45°   Visibility: 10mi
Dew Point: 30°   Wind: 8mph
Humidity: 56%   Direction: 280°W
Pressure: 30.16"   Gusts: NA
Location:  36.3883°N, 104.381°W
Report Text: KRTN 280053Z AUTO 28007KT 10SM CLR 07/M01 A3016 RMK AO2 SLP202 T00721011
Loading
Personal Weather Stations






























Interactive Weather Map New forecast layout! Learn more

10-Day Weather Forecast

Advertisements
Track Severe Weather on mobile